Time;durP1;ratioP1;P1;durP2;ratioP2;P2;SDS_P1;SDS_P2;PMS_P1;PMS_P2;Temp;Humidity;BMP_temperature;BMP_pressure;BME280_temperature;BME280_humidity;BME280_pressure;Samples;Min_cycle;Max_cycle;Signal;HPM_P1;HPM_P2
2021/10/08 00:01:13;;;;;;;7.47;4.63;;;;;;;;;;4984698;28;20178;-86
2021/10/08 00:04:18;;;;;;;5.10;4.17;;;;;;;;;;4973636;28;20217;-86
2021/10/08 00:07:23;;;;;;;4.90;4.40;;;;;;;;;;4985189;28;20178;-86
2021/10/08 00:10:28;;;;;;;6.90;4.60;;;;;;;;;;4973266;28;20186;-86
2021/10/08 00:13:31;;;;;;;6.33;4.67;;;;;;;;;;4973394;28;20221;-86
2021/10/08 00:16:36;;;;;;;7.27;4.80;;;;;;;;;;4995783;28;20175;-86
2021/10/08 00:19:40;;;;;;;7.90;4.70;;;;;;;;;;4984397;28;20182;-86
2021/10/08 00:22:46;;;;;;;6.27;4.00;;;;;;;;;;4995415;28;20644;-86
2021/10/08 00:25:50;;;;;;;5.80;4.40;;;;;;;;;;4984110;28;20218;-86
2021/10/08 00:28:54;;;;;;;7.63;4.67;;;;;;;;;;4984322;28;20190;-86
2021/10/08 00:31:58;;;;;;;5.53;4.77;;;;;;;;;;4995367;28;20178;-86
2021/10/08 00:35:02;;;;;;;5.97;4.63;;;;;;;;;;4983845;28;20511;-86
2021/10/08 00:38:08;;;;;;;6.97;4.57;;;;;;;;;;4973054;28;20186;-86
2021/10/08 00:41:13;;;;;;;5.00;4.40;;;;;;;;;;4973346;28;20511;-86
2021/10/08 00:44:17;;;;;;;5.87;4.07;;;;;;;;;;4983716;28;20688;-86
2021/10/08 00:47:22;;;;;;;5.00;4.43;;;;;;;;;;4972664;28;20174;-86
2021/10/08 00:50:27;;;;;;;6.70;4.43;;;;;;;;;;4983692;28;20205;-86
2021/10/08 00:53:31;;;;;;;6.50;4.53;;;;;;;;;;4983777;28;20222;-86
2021/10/08 00:56:35;;;;;;;8.67;4.90;;;;;;;;;;4994960;28;20187;-86
2021/10/08 00:59:40;;;;;;;6.87;4.67;;;;;;;;;;4984368;28;20190;-86
2021/10/08 01:02:45;;;;;;;6.37;4.80;;;;;;;;;;4983174;28;20206;-86
2021/10/08 01:05:49;;;;;;;7.83;4.53;;;;;;;;;;4972740;28;20210;-86
2021/10/08 01:08:54;;;;;;;4.97;4.20;;;;;;;;;;4994648;28;20665;-86
2021/10/08 01:11:59;;;;;;;6.83;4.80;;;;;;;;;;4972694;28;20186;-86
2021/10/08 01:15:05;;;;;;;5.63;4.53;;;;;;;;;;4972269;28;20202;-86
2021/10/08 01:18:11;;;;;;;8.97;4.80;;;;;;;;;;4994688;28;20178;-86
2021/10/08 01:21:16;;;;;;;6.57;4.80;;;;;;;;;;4972535;28;20519;-86
2021/10/08 01:24:21;;;;;;;6.33;4.30;;;;;;;;;;4983405;28;20689;-86
2021/10/08 01:27:26;;;;;;;7.93;4.33;;;;;;;;;;4994449;28;20206;-86
2021/10/08 01:30:36;;;;;;;7.83;4.40;;;;;;;;;;4972545;28;20194;-86
2021/10/08 01:33:40;;;;;;;5.23;4.30;;;;;;;;;;4983015;28;20581;-86
2021/10/08 01:36:45;;;;;;;7.60;4.93;;;;;;;;;;4972508;28;20178;-86
2021/10/08 01:39:50;;;;;;;6.73;4.30;;;;;;;;;;4983004;28;20174;-86
2021/10/08 01:42:54;;;;;;;7.00;4.57;;;;;;;;;;4983006;28;20218;-86
2021/10/08 01:45:59;;;;;;;8.03;5.07;;;;;;;;;;4981974;28;20226;-86
2021/10/08 01:49:11;;;;;;;7.23;4.53;;;;;;;;;;4984267;28;20190;-86
2021/10/08 01:52:16;;;;;;;6.93;4.30;;;;;;;;;;4993959;28;20186;-86
2021/10/08 01:55:24;;;;;;;7.63;4.63;;;;;;;;;;4983540;28;20186;-86
2021/10/08 01:58:36;;;;;;;5.90;4.37;;;;;;;;;;4982792;28;20202;-86
2021/10/08 02:01:42;;;;;;;5.77;4.20;;;;;;;;;;4971679;28;20178;-86
2021/10/08 02:04:53;;;;;;;4.93;4.37;;;;;;;;;;4972215;28;20704;-86
2021/10/08 02:07:57;;;;;;;6.87;4.67;;;;;;;;;;4971574;28;20190;-86
2021/10/08 02:11:08;;;;;;;7.27;5.13;;;;;;;;;;4982530;28;20186;-86
2021/10/08 02:14:15;;;;;;;8.37;5.33;;;;;;;;;;4982513;28;20225;-86
2021/10/08 02:17:24;;;;;;;8.10;5.67;;;;;;;;;;4994077;28;20174;-86
2021/10/08 02:20:28;;;;;;;8.20;5.53;;;;;;;;;;4983105;28;20190;-86
2021/10/08 02:23:33;;;;;;;6.80;5.17;;;;;;;;;;4982769;28;20221;-86
2021/10/08 02:26:38;;;;;;;7.57;5.40;;;;;;;;;;4971592;28;20202;-86
2021/10/08 02:29:43;;;;;;;6.93;4.87;;;;;;;;;;4971600;28;20190;-86
2021/10/08 02:32:50;;;;;;;7.73;5.00;;;;;;;;;;4971456;28;20182;-86
2021/10/08 02:35:54;;;;;;;6.07;5.33;;;;;;;;;;4993673;28;20193;-86
2021/10/08 02:38:59;;;;;;;8.53;4.93;;;;;;;;;;4982213;28;20202;-86
2021/10/08 02:42:05;;;;;;;6.43;4.40;;;;;;;;;;4982553;28;20186;-86
2021/10/08 02:45:10;;;;;;;8.93;5.43;;;;;;;;;;4971258;28;20186;-86
2021/10/08 02:48:14;;;;;;;6.83;5.30;;;;;;;;;;4993710;28;20179;-86
2021/10/08 02:51:18;;;;;;;8.60;5.37;;;;;;;;;;4971055;28;20179;-86
2021/10/08 02:54:23;;;;;;;6.10;4.83;;;;;;;;;;4982287;28;20226;-86
2021/10/08 02:57:27;;;;;;;8.00;5.20;;;;;;;;;;4983606;28;20178;-86
2021/10/08 03:00:32;;;;;;;5.23;4.47;;;;;;;;;;4986077;28;20208;-86
2021/10/08 03:03:35;;;;;;;7.30;4.80;;;;;;;;;;4974461;28;20229;-86
2021/10/08 03:06:40;;;;;;;12.10;5.30;;;;;;;;;;4974868;28;20210;-86
2021/10/08 03:09:46;;;;;;;6.43;5.20;;;;;;;;;;4975026;28;20182;-86
2021/10/08 03:12:51;;;;;;;7.53;5.37;;;;;;;;;;4974853;28;20178;-86
2021/10/08 03:15:56;;;;;;;9.50;5.80;;;;;;;;;;4995833;28;20190;-86
2021/10/08 03:19:00;;;;;;;8.57;6.07;;;;;;;;;;4974332;28;20641;-86
2021/10/08 03:22:04;;;;;;;7.57;5.87;;;;;;;;;;4974367;28;20182;-86
2021/10/08 03:25:09;;;;;;;8.83;5.90;;;;;;;;;;4974263;28;20535;-86
2021/10/08 03:28:14;;;;;;;6.40;5.37;;;;;;;;;;4985028;28;20182;-86
2021/10/08 03:31:19;;;;;;;15.53;6.60;;;;;;;;;;4985623;28;20186;-86
2021/10/08 03:34:23;;;;;;;9.40;5.70;;;;;;;;;;4973880;28;20692;-86
2021/10/08 03:37:36;;;;;;;9.33;6.07;;;;;;;;;;4966064;28;20199;-86
2021/10/08 03:40:43;;;;;;;8.57;6.03;;;;;;;;;;4954902;28;20195;-86
2021/10/08 03:43:48;;;;;;;11.73;6.93;;;;;;;;;;4965487;28;20559;-87
2021/10/08 03:46:54;;;;;;;9.13;5.97;;;;;;;;;;4965457;28;20559;-88
2021/10/08 03:49:58;;;;;;;9.53;6.43;;;;;;;;;;4971813;28;20546;-86
2021/10/08 03:53:05;;;;;;;8.30;7.33;;;;;;;;;;4983072;28;20213;-86
2021/10/08 03:56:09;;;;;;;10.03;7.13;;;;;;;;;;4996112;28;20190;-87
2021/10/08 03:59:14;;;;;;;11.57;6.87;;;;;;;;;;4984917;28;20185;-86
2021/10/08 04:02:18;;;;;;;10.80;6.83;;;;;;;;;;4973537;28;20202;-86
2021/10/08 04:05:23;;;;;;;12.33;7.57;;;;;;;;;;4985269;28;20178;-86
2021/10/08 04:08:27;;;;;;;9.37;6.73;;;;;;;;;;4984370;28;20174;-87
2021/10/08 04:11:32;;;;;;;9.83;7.27;;;;;;;;;;4984721;28;20194;-86
2021/10/08 04:14:36;;;;;;;11.13;7.40;;;;;;;;;;4984342;28;20225;-86
2021/10/08 04:17:40;;;;;;;9.90;7.90;;;;;;;;;;4984260;28;20198;-86
2021/10/08 04:20:47;;;;;;;11.30;8.10;;;;;;;;;;4984363;28;20202;-86
2021/10/08 04:23:52;;;;;;;10.53;8.03;;;;;;;;;;4984195;28;20225;-86
2021/10/08 04:26:59;;;;;;;9.43;8.10;;;;;;;;;;4984369;28;20205;-86
2021/10/08 04:30:06;;;;;;;8.60;7.43;;;;;;;;;;4984783;28;20190;-87
2021/10/08 04:33:16;;;;;;;13.20;8.33;;;;;;;;;;4984352;28;20221;-86
2021/10/08 04:36:24;;;;;;;13.40;10.93;;;;;;;;;;4996090;28;20178;-86
2021/10/08 04:39:35;;;;;;;14.97;10.90;;;;;;;;;;4985154;28;20533;-86
2021/10/08 04:42:42;;;;;;;19.67;9.67;;;;;;;;;;4995581;28;20189;-86
2021/10/08 04:45:49;;;;;;;15.23;9.60;;;;;;;;;;4984685;28;20182;-86
2021/10/08 04:48:55;;;;;;;22.33;10.73;;;;;;;;;;4984298;28;20174;-86
2021/10/08 04:52:01;;;;;;;13.17;9.90;;;;;;;;;;4984154;28;20217;-86
2021/10/08 04:55:07;;;;;;;12.83;9.57;;;;;;;;;;4984002;28;20182;-86
2021/10/08 04:58:11;;;;;;;10.33;8.33;;;;;;;;;;4983495;28;20190;-86
2021/10/08 05:01:15;;;;;;;16.60;11.17;;;;;;;;;;4983826;28;20174;-86
2021/10/08 05:04:19;;;;;;;15.10;9.57;;;;;;;;;;4983327;28;20233;-86
2021/10/08 05:07:24;;;;;;;14.47;9.47;;;;;;;;;;4983441;28;20221;-86
2021/10/08 05:10:29;;;;;;;17.97;9.97;;;;;;;;;;4995166;28;20182;-86
2021/10/08 05:13:34;;;;;;;11.77;9.83;;;;;;;;;;4983405;28;20226;-86
2021/10/08 05:16:40;;;;;;;14.43;10.40;;;;;;;;;;4983402;28;20179;-86
2021/10/08 05:19:45;;;;;;;28.13;10.67;;;;;;;;;;4983278;28;20193;-86
2021/10/08 05:22:58;;;;;;;12.53;10.17;;;;;;;;;;4984381;28;20221;-86
2021/10/08 05:26:02;;;;;;;20.60;11.40;;;;;;;;;;4972096;28;20655;-86
2021/10/08 05:29:07;;;;;;;16.47;11.17;;;;;;;;;;4983245;28;20185;-86
2021/10/08 05:32:11;;;;;;;16.17;11.43;;;;;;;;;;4983251;28;20205;-86
2021/10/08 05:35:16;;;;;;;12.17;10.37;;;;;;;;;;4994344;28;20205;-86
2021/10/08 05:38:20;;;;;;;14.07;10.37;;;;;;;;;;4982938;28;20668;-86
2021/10/08 05:41:25;;;;;;;20.17;11.00;;;;;;;;;;4972115;28;20194;-86
2021/10/08 05:44:30;;;;;;;21.07;9.93;;;;;;;;;;4971648;28;20228;-86
2021/10/08 05:47:34;;;;;;;14.20;10.27;;;;;;;;;;4971749;28;20206;-86
2021/10/08 05:50:39;;;;;;;15.67;9.97;;;;;;;;;;4993461;28;20281;-86
2021/10/08 05:53:44;;;;;;;14.37;10.63;;;;;;;;;;4982628;28;20214;-86
2021/10/08 05:56:49;;;;;;;14.93;9.67;;;;;;;;;;4972245;28;20193;-86
2021/10/08 05:59:53;;;;;;;15.43;10.53;;;;;;;;;;4983086;28;20645;-86
2021/10/08 06:02:57;;;;;;;16.47;10.67;;;;;;;;;;4982314;28;20241;-86
2021/10/08 06:06:04;;;;;;;15.07;10.27;;;;;;;;;;4994252;28;20189;-86
2021/10/08 06:09:10;;;;;;;13.73;8.87;;;;;;;;;;4971683;28;20193;-86
2021/10/08 06:12:16;;;;;;;14.27;9.10;;;;;;;;;;4993969;28;20178;-86
2021/10/08 06:15:22;;;;;;;17.90;9.47;;;;;;;;;;4993058;28;20185;-87
2021/10/08 06:18:28;;;;;;;14.87;9.83;;;;;;;;;;4996651;28;20174;-87
2021/10/08 06:21:33;;;;;;;29.57;10.17;;;;;;;;;;4995860;28;20178;-87
2021/10/08 06:24:37;;;;;;;17.43;9.07;;;;;;;;;;4972201;28;20220;-86
2021/10/08 06:27:43;;;;;;;11.43;9.20;;;;;;;;;;4982570;28;20206;-85
2021/10/08 06:30:47;;;;;;;14.17;9.53;;;;;;;;;;4971567;28;20194;-86
2021/10/08 06:33:53;;;;;;;11.57;8.53;;;;;;;;;;4997366;28;20218;-86
2021/10/08 06:36:58;;;;;;;11.73;8.27;;;;;;;;;;4975373;28;20186;-86
2021/10/08 06:40:03;;;;;;;9.87;8.57;;;;;;;;;;4997323;28;20186;-86
2021/10/08 06:43:09;;;;;;;11.13;8.23;;;;;;;;;;4986189;28;20689;-85
2021/10/08 06:46:26;;;;;;;11.80;8.27;;;;;;;;;;4988108;28;20182;-86
2021/10/08 06:49:33;;;;;;;20.13;9.17;;;;;;;;;;4996969;28;20190;-86
2021/10/08 06:52:38;;;;;;;12.70;8.50;;;;;;;;;;4985946;28;20179;-86
2021/10/08 06:55:43;;;;;;;11.73;8.90;;;;;;;;;;4986556;28;20185;-86
2021/10/08 06:58:49;;;;;;;13.03;9.33;;;;;;;;;;4986018;28;20511;-86
2021/10/08 07:01:54;;;;;;;12.37;8.67;;;;;;;;;;4996999;28;20522;-86
2021/10/08 07:04:58;;;;;;;11.93;8.60;;;;;;;;;;4974475;28;20310;-86
2021/10/08 07:08:03;;;;;;;12.90;9.23;;;;;;;;;;4985734;28;20202;-86
2021/10/08 07:11:08;;;;;;;13.83;8.43;;;;;;;;;;4986028;28;20539;-86
2021/10/08 07:14:15;;;;;;;15.10;9.30;;;;;;;;;;4985591;28;20214;-86
2021/10/08 07:17:19;;;;;;;12.67;9.27;;;;;;;;;;4985397;28;20202;-86
2021/10/08 07:20:26;;;;;;;14.10;9.77;;;;;;;;;;4985761;28;20190;-86
2021/10/08 07:23:32;;;;;;;12.57;8.77;;;;;;;;;;4985288;28;20221;-86
2021/10/08 07:26:36;;;;;;;13.83;9.00;;;;;;;;;;4985468;28;20186;-86
2021/10/08 07:29:40;;;;;;;13.50;9.57;;;;;;;;;;4985639;28;20179;-86
2021/10/08 07:32:45;;;;;;;14.43;9.40;;;;;;;;;;4985229;28;20629;-86
2021/10/08 07:35:49;;;;;;;15.13;9.30;;;;;;;;;;4985589;28;20182;-86
2021/10/08 07:38:54;;;;;;;15.50;10.40;;;;;;;;;;4985178;28;20182;-86
2021/10/08 07:42:01;;;;;;;13.23;8.83;;;;;;;;;;4985244;28;20558;-86
2021/10/08 07:45:07;;;;;;;11.43;9.33;;;;;;;;;;4983997;28;20186;-86
2021/10/08 07:48:11;;;;;;;16.33;10.07;;;;;;;;;;5001553;28;20214;-86
2021/10/08 07:51:16;;;;;;;23.10;10.40;;;;;;;;;;4985248;28;20189;-86
2021/10/08 07:54:20;;;;;;;13.53;9.67;;;;;;;;;;4984964;28;20221;-86
2021/10/08 07:57:24;;;;;;;17.47;10.17;;;;;;;;;;4985054;28;20182;-86
2021/10/08 08:00:28;;;;;;;12.13;9.40;;;;;;;;;;4996426;28;20192;-86
2021/10/08 08:03:32;;;;;;;16.30;10.90;;;;;;;;;;4984608;28;20573;-85
2021/10/08 08:06:36;;;;;;;16.57;11.20;;;;;;;;;;4995844;28;20193;-85
2021/10/08 08:09:41;;;;;;;17.43;11.27;;;;;;;;;;5007236;28;20181;-86
2021/10/08 08:12:45;;;;;;;12.83;10.20;;;;;;;;;;4973547;28;20194;-86
2021/10/08 08:15:49;;;;;;;16.87;10.90;;;;;;;;;;4984759;28;20193;-86
2021/10/08 08:18:53;;;;;;;17.33;11.63;;;;;;;;;;4984771;28;20254;-86
2021/10/08 08:21:57;;;;;;;16.17;11.67;;;;;;;;;;4973461;28;20197;-86
2021/10/08 08:25:03;;;;;;;23.03;12.10;;;;;;;;;;4984852;28;20209;-86
2021/10/08 08:28:07;;;;;;;19.90;11.47;;;;;;;;;;4995466;28;20217;-86
2021/10/08 08:31:13;;;;;;;18.53;11.83;;;;;;;;;;4984307;28;20209;-86
2021/10/08 08:34:17;;;;;;;15.60;11.37;;;;;;;;;;4984054;28;20233;-86
2021/10/08 08:37:21;;;;;;;16.43;10.77;;;;;;;;;;4973006;28;20185;-86
2021/10/08 08:40:28;;;;;;;18.23;10.90;;;;;;;;;;4984139;28;20197;-86
2021/10/08 08:43:32;;;;;;;17.30;11.10;;;;;;;;;;4995314;28;20306;-86
2021/10/08 08:46:37;;;;;;;15.60;10.67;;;;;;;;;;4972373;28;20205;-86
2021/10/08 08:49:41;;;;;;;18.83;11.60;;;;;;;;;;4995243;28;20538;-86
2021/10/08 08:52:45;;;;;;;18.13;12.00;;;;;;;;;;4994815;28;20204;-86
2021/10/08 08:55:50;;;;;;;19.03;11.57;;;;;;;;;;4983595;28;20189;-86
2021/10/08 08:59:05;;;;;;;17.20;10.90;;;;;;;;;;4983924;28;20190;-86
2021/10/08 09:02:09;;;;;;;14.80;11.63;;;;;;;;;;4983704;28;20204;-86
2021/10/08 09:05:19;;;;;;;15.50;10.93;;;;;;;;;;4983661;28;20201;-86
2021/10/08 09:08:33;;;;;;;15.57;10.33;;;;;;;;;;4983316;28;20225;-86
2021/10/08 09:11:38;;;;;;;13.17;9.80;;;;;;;;;;4994648;28;20185;-86
2021/10/08 09:14:42;;;;;;;16.70;10.07;;;;;;;;;;4972232;28;20221;-86
2021/10/08 09:17:47;;;;;;;12.57;10.03;;;;;;;;;;4994915;28;20189;-86
2021/10/08 09:21:04;;;;;;;12.93;9.87;;;;;;;;;;4994708;28;20538;-87
2021/10/08 09:24:22;;;;;;;15.00;11.03;;;;;;;;;;4983013;28;20214;-86
2021/10/08 09:27:26;;;;;;;17.10;10.27;;;;;;;;;;4983392;28;20194;-86
2021/10/08 09:30:39;;;;;;;12.30;9.97;;;;;;;;;;4971957;28;20197;-86
2021/10/08 09:33:43;;;;;;;14.53;10.17;;;;;;;;;;4983019;28;20226;-86
2021/10/08 09:36:54;;;;;;;15.10;11.37;;;;;;;;;;4972105;28;20193;-86
2021/10/08 09:39:58;;;;;;;19.60;10.27;;;;;;;;;;4994638;28;20185;-86
2021/10/08 09:43:11;;;;;;;12.27;9.50;;;;;;;;;;4983173;28;20225;-86
2021/10/08 09:46:20;;;;;;;12.03;8.70;;;;;;;;;;4982928;28;20178;-86
2021/10/08 09:49:25;;;;;;;14.23;9.90;;;;;;;;;;4993667;28;20218;-86
2021/10/08 09:52:31;;;;;;;11.77;9.90;;;;;;;;;;4994187;28;20178;-87
2021/10/08 09:55:36;;;;;;;15.17;9.37;;;;;;;;;;4993755;28;20542;-87
2021/10/08 09:58:51;;;;;;;12.37;8.43;;;;;;;;;;4982717;28;20194;-86
2021/10/08 10:02:03;;;;;;;11.27;8.60;;;;;;;;;;4982754;28;20186;-87
2021/10/08 10:05:10;;;;;;;12.80;8.13;;;;;;;;;;5016922;23;20229;-86
2021/10/08 10:08:14;;;;;;;11.67;7.67;;;;;;;;;;4980484;28;20209;-86
2021/10/08 10:11:21;;;;;;;10.57;6.97;;;;;;;;;;4993686;28;20177;-86
2021/10/08 10:14:25;;;;;;;15.13;8.63;;;;;;;;;;4993293;28;20217;-86
2021/10/08 10:17:29;;;;;;;11.80;8.03;;;;;;;;;;4982379;28;20196;-86
2021/10/08 10:20:37;;;;;;;10.70;7.83;;;;;;;;;;4993300;28;20177;-86
2021/10/08 10:23:42;;;;;;;9.80;7.83;;;;;;;;;;4981717;28;20186;-86
2021/10/08 10:26:46;;;;;;;8.73;7.33;;;;;;;;;;5004166;28;20510;-86
2021/10/08 10:29:51;;;;;;;9.77;7.63;;;;;;;;;;4981895;28;20553;-86
2021/10/08 10:32:56;;;;;;;12.93;7.93;;;;;;;;;;4992897;28;20181;-86
2021/10/08 10:36:00;;;;;;;23.60;8.93;;;;;;;;;;4982136;28;20197;-86
2021/10/08 10:39:11;;;;;;;11.97;8.13;;;;;;;;;;4992938;28;20201;-86
2021/10/08 10:42:16;;;;;;;9.93;7.93;;;;;;;;;;4981942;28;20185;-86
2021/10/08 10:45:25;;;;;;;10.73;8.53;;;;;;;;;;4981422;28;20213;-86
2021/10/08 10:48:31;;;;;;;11.37;8.47;;;;;;;;;;5004220;28;20206;-86
2021/10/08 10:51:35;;;;;;;10.33;8.27;;;;;;;;;;4993219;28;20174;-86
2021/10/08 10:54:41;;;;;;;13.03;8.50;;;;;;;;;;4982643;28;20217;-86
2021/10/08 10:57:57;;;;;;;11.97;8.50;;;;;;;;;;4992607;28;20201;-87
2021/10/08 11:01:00;;;;;;;12.03;9.10;;;;;;;;;;4992572;28;20621;-86
2021/10/08 11:04:24;;;;;;;11.37;8.87;;;;;;;;;;4981588;28;20711;-86
2021/10/08 11:07:28;;;;;;;12.13;9.00;;;;;;;;;;4993587;28;20186;-86
2021/10/08 11:10:32;;;;;;;16.10;8.87;;;;;;;;;;4992486;28;20177;-86
2021/10/08 11:13:38;;;;;;;13.73;8.90;;;;;;;;;;4981360;28;20186;-86
2021/10/08 11:16:42;;;;;;;12.80;8.30;;;;;;;;;;4992731;28;20178;-86
2021/10/08 11:19:47;;;;;;;16.13;8.80;;;;;;;;;;4994956;28;20509;-86
2021/10/08 11:22:52;;;;;;;13.07;8.23;;;;;;;;;;4996388;28;20636;-86
2021/10/08 11:26:05;;;;;;;14.10;8.77;;;;;;;;;;5007301;28;20181;-87
2021/10/08 11:29:12;;;;;;;9.87;8.07;;;;;;;;;;4984749;28;20560;-86
2021/10/08 11:32:17;;;;;;;10.97;8.37;;;;;;;;;;4995489;28;20177;-86
2021/10/08 11:35:30;;;;;;;13.37;8.20;;;;;;;;;;4996188;28;20213;-86
2021/10/08 11:38:34;;;;;;;27.33;8.80;;;;;;;;;;4984353;28;20194;-86
2021/10/08 11:41:38;;;;;;;11.47;8.57;;;;;;;;;;4995230;28;20182;-86
2021/10/08 11:45:01;;;;;;;13.00;8.30;;;;;;;;;;4995439;28;20217;-86
2021/10/08 11:48:15;;;;;;;12.93;9.30;;;;;;;;;;5006263;28;20193;-87
2021/10/08 11:51:22;;;;;;;10.97;8.57;;;;;;;;;;4994704;28;20676;-87
2021/10/08 11:54:27;;;;;;;9.67;7.80;;;;;;;;;;4995169;28;20217;-86
2021/10/08 11:57:52;;;;;;;10.70;8.27;;;;;;;;;;4994668;28;20513;-86
2021/10/08 12:00:56;;;;;;;10.30;7.83;;;;;;;;;;4995043;28;20182;-87
2021/10/08 12:04:00;;;;;;;10.53;8.23;;;;;;;;;;4994467;28;20225;-86
2021/10/08 12:07:06;;;;;;;12.80;8.20;;;;;;;;;;4984338;28;20177;-87
2021/10/08 12:10:13;;;;;;;13.00;8.70;;;;;;;;;;4983186;28;20201;-86
2021/10/08 12:13:17;;;;;;;10.90;8.67;;;;;;;;;;5005770;28;20533;-87
2021/10/08 12:16:35;;;;;;;22.57;8.93;;;;;;;;;;4994394;28;20177;-86
2021/10/08 12:19:40;;;;;;;9.73;8.00;;;;;;;;;;4983298;28;20178;-87
2021/10/08 12:22:44;;;;;;;11.43;7.83;;;;;;;;;;5005698;28;20522;-86
2021/10/08 12:25:50;;;;;;;10.53;7.57;;;;;;;;;;5004849;28;20221;-86
2021/10/08 12:28:55;;;;;;;11.37;7.43;;;;;;;;;;4994180;28;20209;-87
2021/10/08 12:32:04;;;;;;;9.30;7.90;;;;;;;;;;4993810;28;20186;-86
2021/10/08 12:35:13;;;;;;;12.37;8.30;;;;;;;;;;4982764;28;20221;-87
2021/10/08 12:38:17;;;;;;;8.97;7.77;;;;;;;;;;4982684;28;20190;-86
2021/10/08 12:41:41;;;;;;;15.67;7.80;;;;;;;;;;4993646;28;20185;-87
2021/10/08 12:44:53;;;;;;;16.63;7.33;;;;;;;;;;4993530;28;20222;-87
2021/10/08 12:47:57;;;;;;;9.60;7.57;;;;;;;;;;4993718;28;20197;-87
2021/10/08 12:51:01;;;;;;;9.77;7.27;;;;;;;;;;4993609;28;20174;-87
2021/10/08 12:54:19;;;;;;;8.97;7.60;;;;;;;;;;4981772;28;20217;-87
2021/10/08 12:57:23;;;;;;;8.67;7.10;;;;;;;;;;4982172;28;20185;-87
2021/10/08 13:00:56;;;;;;;13.17;7.40;;;;;;;;;;4993679;28;20190;-87
2021/10/08 13:04:17;;;;;;;10.83;7.60;;;;;;;;;;4982361;28;20229;-87
2021/10/08 13:07:21;;;;;;;8.93;7.10;;;;;;;;;;4993027;28;20190;-87
2021/10/08 13:10:26;;;;;;;22.93;8.10;;;;;;;;;;4992612;28;20208;-88
2021/10/08 13:13:35;;;;;;;12.27;7.67;;;;;;;;;;4992933;28;20174;-87
2021/10/08 13:16:39;;;;;;;9.80;7.47;;;;;;;;;;5003624;28;20178;-87
2021/10/08 13:19:43;;;;;;;12.70;7.57;;;;;;;;;;4981104;28;20181;-87
2021/10/08 13:22:48;;;;;;;24.80;7.70;;;;;;;;;;4981423;28;20182;-87
2021/10/08 13:25:52;;;;;;;10.93;7.37;;;;;;;;;;5015330;28;20209;-87
2021/10/08 13:28:56;;;;;;;11.20;8.07;;;;;;;;;;4993975;28;20181;-86
2021/10/08 13:32:00;;;;;;;18.77;7.77;;;;;;;;;;5004689;28;20185;-86
2021/10/08 13:35:05;;;;;;;23.93;10.60;;;;;;;;;;4981668;28;20224;-86
2021/10/08 13:38:09;;;;;;;13.60;7.77;;;;;;;;;;5004431;28;20302;-86
2021/10/08 13:41:13;;;;;;;15.13;7.13;;;;;;;;;;4993287;28;20198;-86
2021/10/08 13:44:18;;;;;;;16.20;7.77;;;;;;;;;;4992798;28;20217;-86
2021/10/08 13:47:22;;;;;;;11.67;8.03;;;;;;;;;;4993366;28;20185;-86
2021/10/08 13:50:26;;;;;;;11.47;7.43;;;;;;;;;;4992871;28;20548;-86
2021/10/08 13:53:30;;;;;;;17.57;8.73;;;;;;;;;;4992843;28;20201;-86
2021/10/08 13:56:34;;;;;;;12.23;7.73;;;;;;;;;;4981935;28;20533;-86
2021/10/08 13:59:38;;;;;;;10.83;7.50;;;;;;;;;;4981486;28;20173;-86
2021/10/08 14:10:15;;;;;;;12.60;7.33;;;;;;;;;;4992149;28;20193;-86
2021/10/08 14:12:39;;;;;;;7.43;6.23;;;;;;;;;;4992209;28;20672;-86
2021/10/08 14:15:43;;;;;;;10.60;6.47;;;;;;;;;;4980939;28;20217;-86
2021/10/08 14:18:47;;;;;;;14.60;6.67;;;;;;;;;;5003001;28;20632;-86
2021/10/08 14:21:51;;;;;;;10.77;7.50;;;;;;;;;;5003183;28;20663;-86
2021/10/08 14:24:56;;;;;;;12.97;7.20;;;;;;;;;;4980892;28;20221;-86
2021/10/08 14:28:00;;;;;;;17.67;7.40;;;;;;;;;;5015444;28;20181;-86
2021/10/08 14:31:04;;;;;;;12.47;8.10;;;;;;;;;;5003325;28;20213;-86
2021/10/08 14:34:08;;;;;;;15.77;7.43;;;;;;;;;;5003243;28;20224;-86
2021/10/08 14:37:12;;;;;;;14.57;7.63;;;;;;;;;;4981459;28;20182;-86
2021/10/08 14:40:16;;;;;;;18.13;8.23;;;;;;;;;;4981352;28;20510;-86
2021/10/08 14:43:20;;;;;;;19.23;7.90;;;;;;;;;;4991628;28;20181;-86
2021/10/08 14:46:24;;;;;;;22.37;8.13;;;;;;;;;;5003156;28;20174;-86
2021/10/08 14:49:29;;;;;;;25.00;8.27;;;;;;;;;;4980805;28;20205;-86
2021/10/08 14:52:34;;;;;;;12.20;7.17;;;;;;;;;;4992691;28;20205;-86
2021/10/08 14:58:54;;;;;;;12.37;8.30;;;;;;;;;;4997015;28;20185;-85
2021/10/08 15:01:58;;;;;;;54.00;9.17;;;;;;;;;;4996447;28;20182;-86
2021/10/08 15:05:05;;;;;;;15.60;8.77;;;;;;;;;;4995522;28;20228;-86
2021/10/08 15:08:10;;;;;;;18.00;7.83;;;;;;;;;;4996673;28;20186;-86
2021/10/08 15:11:14;;;;;;;17.50;7.83;;;;;;;;;;4996027;28;20209;-86
2021/10/08 15:14:17;;;;;;;13.63;7.30;;;;;;;;;;4996038;28;20213;-86
2021/10/08 15:17:21;;;;;;;16.53;8.10;;;;;;;;;;4995353;28;20177;-86
2021/10/08 15:20:26;;;;;;;10.53;7.33;;;;;;;;;;4995260;28;20177;-85
2021/10/08 15:23:31;;;;;;;11.40;7.23;;;;;;;;;;4995092;28;20174;-86
2021/10/08 15:26:36;;;;;;;28.50;10.27;;;;;;;;;;5006331;28;20181;-86
2021/10/08 15:29:40;;;;;;;26.90;9.87;;;;;;;;;;4983912;28;20208;-86
2021/10/08 15:32:44;;;;;;;15.37;7.90;;;;;;;;;;5006167;28;20197;-86
2021/10/08 15:35:49;;;;;;;10.27;7.13;;;;;;;;;;4983342;28;20225;-86
2021/10/08 15:38:53;;;;;;;10.37;7.40;;;;;;;;;;5006020;28;20185;-86
2021/10/08 15:41:58;;;;;;;12.93;7.87;;;;;;;;;;4983830;28;20174;-86
2021/10/08 15:45:04;;;;;;;20.33;7.43;;;;;;;;;;4994656;28;20235;-86
2021/10/08 15:48:08;;;;;;;10.37;7.67;;;;;;;;;;4994286;28;20201;-86
2021/10/08 15:51:12;;;;;;;9.27;6.97;;;;;;;;;;5005808;28;20225;-86
2021/10/08 15:54:16;;;;;;;11.50;6.90;;;;;;;;;;4983370;28;20576;-86
2021/10/08 15:57:20;;;;;;;9.60;7.47;;;;;;;;;;4983314;28;20182;-86
2021/10/08 16:00:26;;;;;;;10.73;8.17;;;;;;;;;;4983996;28;20185;-86
2021/10/08 16:03:30;;;;;;;9.47;7.53;;;;;;;;;;4984116;28;20201;-87
2021/10/08 16:06:34;;;;;;;11.00;7.80;;;;;;;;;;5019697;23;20230;-87
2021/10/08 16:09:38;;;;;;;12.63;8.33;;;;;;;;;;4996329;28;20186;-87
2021/10/08 16:12:42;;;;;;;14.23;8.87;;;;;;;;;;4985170;28;20644;-87
2021/10/08 16:15:46;;;;;;;11.70;9.40;;;;;;;;;;4976518;28;20550;-87
2021/10/08 16:18:53;;;;;;;16.17;9.47;;;;;;;;;;4976306;28;20654;-87
2021/10/08 16:21:57;;;;;;;14.53;9.20;;;;;;;;;;4954360;28;20183;-87
2021/10/08 16:25:03;;;;;;;13.73;9.50;;;;;;;;;;4976278;28;20226;-87
2021/10/08 16:28:07;;;;;;;13.97;9.47;;;;;;;;;;4976638;28;20182;-87
2021/10/08 16:31:12;;;;;;;14.10;9.93;;;;;;;;;;4987342;28;20211;-87
2021/10/08 16:34:16;;;;;;;15.60;10.67;;;;;;;;;;4976003;28;20201;-87
2021/10/08 16:37:20;;;;;;;15.30;10.83;;;;;;;;;;4976627;28;20550;-87
2021/10/08 16:40:24;;;;;;;14.77;10.77;;;;;;;;;;4954335;28;20182;-87
2021/10/08 16:43:28;;;;;;;16.47;10.83;;;;;;;;;;4965378;28;20197;-87
2021/10/08 16:46:32;;;;;;;16.17;11.07;;;;;;;;;;4976006;28;20230;-87
2021/10/08 16:49:36;;;;;;;21.77;10.87;;;;;;;;;;4976095;28;20186;-87
2021/10/08 16:52:49;;;;;;;21.77;12.03;;;;;;;;;;4954429;28;20198;-87
2021/10/08 16:55:53;;;;;;;15.30;11.87;;;;;;;;;;4964684;28;20226;-87
2021/10/08 16:58:57;;;;;;;20.73;12.77;;;;;;;;;;4975723;28;20193;-87
2021/10/08 17:02:01;;;;;;;27.30;19.00;;;;;;;;;;4975602;28;20186;-87
2021/10/08 17:05:07;;;;;;;31.07;20.03;;;;;;;;;;4964470;28;20253;-87
2021/10/08 17:08:11;;;;;;;28.40;20.63;;;;;;;;;;4975876;28;20214;-87
2021/10/08 17:11:15;;;;;;;24.43;19.10;;;;;;;;;;4964042;28;20233;-87
2021/10/08 17:14:19;;;;;;;27.03;19.63;;;;;;;;;;4986972;28;20186;-87
2021/10/08 17:17:23;;;;;;;24.63;18.10;;;;;;;;;;4964093;28;20186;-87
2021/10/08 17:20:29;;;;;;;21.87;16.10;;;;;;;;;;4953288;28;20201;-87
2021/10/08 17:23:43;;;;;;;23.43;15.87;;;;;;;;;;4976037;28;20670;-87
2021/10/08 17:27:51;;;;;;;25.30;15.60;;;;;;;;;;4953090;28;20229;-87
2021/10/08 17:36:51;;;;;;;24.70;18.33;;;;;;;;;;4974887;28;20722;-87
2021/10/08 17:39:55;;;;;;;23.07;17.13;;;;;;;;;;4964128;28;20197;-87
2021/10/08 17:42:59;;;;;;;21.60;17.20;;;;;;;;;;4963808;28;20189;-87
2021/10/08 17:46:03;;;;;;;24.00;16.00;;;;;;;;;;4952884;28;20225;-87
2021/10/08 17:49:08;;;;;;;20.87;16.10;;;;;;;;;;4963843;28;20194;-87
2021/10/08 17:52:12;;;;;;;22.90;14.67;;;;;;;;;;4974507;28;20214;-87
2021/10/08 17:55:16;;;;;;;21.93;14.47;;;;;;;;;;4975064;28;20226;-87
2021/10/08 17:58:21;;;;;;;18.83;13.77;;;;;;;;;;4975235;28;20668;-87
2021/10/08 18:01:33;;;;;;;18.50;14.17;;;;;;;;;;4974888;28;20186;-87
2021/10/08 18:04:37;;;;;;;22.67;16.97;;;;;;;;;;4963690;28;20198;-87
2021/10/08 18:07:41;;;;;;;23.27;16.83;;;;;;;;;;4963559;28;20545;-87
2021/10/08 18:10:45;;;;;;;28.57;18.93;;;;;;;;;;4974992;28;20214;-86
2021/10/08 18:13:50;;;;;;;26.60;17.53;;;;;;;;;;4974614;28;20186;-87
2021/10/08 18:16:54;;;;;;;25.97;17.70;;;;;;;;;;4974823;28;20230;-87
2021/10/08 18:19:58;;;;;;;27.13;18.17;;;;;;;;;;4963620;28;20194;-87
2021/10/08 18:23:03;;;;;;;30.23;19.83;;;;;;;;;;4963469;28;20676;-87
2021/10/08 18:26:07;;;;;;;30.93;18.40;;;;;;;;;;4963454;28;20229;-87
2021/10/08 18:29:17;;;;;;;25.73;17.47;;;;;;;;;;4976893;28;20195;-87
2021/10/08 18:32:21;;;;;;;25.97;18.33;;;;;;;;;;4966824;28;20213;-87
2021/10/08 18:35:25;;;;;;;23.83;17.03;;;;;;;;;;4978480;28;20221;-87